KFOK

Francis S Gabreski Airport

Westhampton Beach, New York, USA
METAR KFOK 241453Z 23005KT 3SM BR OVC004 21/18 A2987 RMK AO2 SLP115 T02060183 51002 $
Observed Flight Rules
Jun-24 @ 14:53 UTC (12 minutes ago) Instrument Flight Rules
Wind Visibility Clouds Conditions
230° at 5 knots 3 miles
  • Overcast at 400' AGL
  • Mist
Temperatures Readings
Current 21°C / 70°F
Dewpoint 18°C / 64°F
Humidity 83%
Altimeter 29.87" Hg
Pressure 1011.5 hPa
Elevation 33
METAR KFOK 241453Z 23005KT 3SM BR OVC004 21/18 A2987 RMK AO2 SLP115 T02060183 51002 $
Observed Flight Rules
Jun-24 @ 14:53 UTC
(12 minutes ago)
LIFR
Wind Visibility
230° at 5 knots 3 miles
Clouds
  • Overcast at 400' AGL
Conditions
  • Mist
Temperature Dewpoint
21°C / 70°F 18°C / 64°F
Humidity Altimeter Pressure
83% 29.87" Hg 1011.5 hPa